createdAt,value
2019-05-14T00:01:31.445Z,3.37
2019-05-14T00:04:03.673Z,3.62
2019-05-14T00:06:34.480Z,3.25
2019-05-14T00:09:07.233Z,3.45
2019-05-14T00:11:37.600Z,3.20
2019-05-14T00:14:08.226Z,3.12
2019-05-14T00:16:38.875Z,3.10
2019-05-14T00:19:11.222Z,3.80
2019-05-14T00:21:42.490Z,3.67
2019-05-14T00:24:13.500Z,3.42
2019-05-14T00:26:44.001Z,3.83
2019-05-14T00:29:14.768Z,3.83
2019-05-14T00:31:45.096Z,3.45
2019-05-14T00:34:18.599Z,3.75
2019-05-14T00:36:48.906Z,3.17
2019-05-14T00:39:21.337Z,3.35
2019-05-14T00:41:51.810Z,3.05
2019-05-14T00:44:22.227Z,3.72
2019-05-14T00:46:52.582Z,3.47
2019-05-14T00:49:23.282Z,3.80
2019-05-14T00:51:53.523Z,3.35
2019-05-14T00:54:24.166Z,3.30
2019-05-14T00:56:55.498Z,3.42
2019-05-14T00:59:25.845Z,3.52
2019-05-14T01:01:56.778Z,3.20
2019-05-14T01:04:27.055Z,3.33
2019-05-14T01:06:57.389Z,3.10
2019-05-14T01:09:28.222Z,2.95
2019-05-14T01:11:58.652Z,2.90
2019-05-14T01:14:28.960Z,3.37
2019-05-14T01:16:59.289Z,3.62
2019-05-14T01:19:31.553Z,3.87
2019-05-14T01:22:03.830Z,3.47
2019-05-14T01:24:34.252Z,3.72
2019-05-14T01:27:04.882Z,2.90
2019-05-14T01:29:35.229Z,3.22
2019-05-14T01:32:05.865Z,3.37
2019-05-14T01:34:37.116Z,3.33
2019-05-14T01:37:07.431Z,3.00
2019-05-14T01:39:38.041Z,3.20
2019-05-14T01:42:08.284Z,3.47
2019-05-14T01:44:41.096Z,2.95
2019-05-14T01:47:12.747Z,3.12
2019-05-14T01:49:43.005Z,3.42
2019-05-14T01:52:14.773Z,2.92
2019-05-14T01:54:47.000Z,3.20
2019-05-14T01:57:17.367Z,3.08
2019-05-14T01:59:47.607Z,3.27
2019-05-14T02:02:18.041Z,3.25
2019-05-14T02:04:51.287Z,2.72
2019-05-14T02:07:22.233Z,3.67
2019-05-14T02:09:53.438Z,3.33
2019-05-14T02:12:23.794Z,3.20
2019-05-14T02:14:54.110Z,2.85
2019-05-14T02:17:25.051Z,3.02
2019-05-14T02:19:55.668Z,3.30
2019-05-14T02:22:26.427Z,3.10
2019-05-14T02:24:56.751Z,2.58
2019-05-14T02:27:27.987Z,3.30
2019-05-14T02:30:01.480Z,3.05
2019-05-14T02:32:31.147Z,3.50
2019-05-14T02:35:03.734Z,3.27
2019-05-14T02:37:34.095Z,2.87
2019-05-14T02:40:13.532Z,2.83
2019-05-14T02:42:45.292Z,3.80
2019-05-14T02:45:15.524Z,3.17
2019-05-14T02:47:45.896Z,3.22
2019-05-14T02:50:20.176Z,2.92
2019-05-14T02:52:51.514Z,2.72
2019-05-14T02:55:21.809Z,2.77
2019-05-14T02:57:52.085Z,3.40
2019-05-14T03:00:22.861Z,3.33
2019-05-14T03:02:53.997Z,2.83
2019-05-14T03:05:24.308Z,2.95
2019-05-14T03:07:54.984Z,3.67
2019-05-14T03:10:29.920Z,3.12
2019-05-14T03:12:59.125Z,3.55
2019-05-14T03:15:30.299Z,3.45
2019-05-14T03:18:00.669Z,3.12
2019-05-14T03:20:32.203Z,3.20
2019-05-14T03:23:08.685Z,3.17
2019-05-14T03:25:34.710Z,3.80
2019-05-14T03:28:05.247Z,3.30
2019-05-14T03:30:35.553Z,2.95
2019-05-14T03:33:06.018Z,3.35
2019-05-14T03:35:43.945Z,3.50
2019-05-14T03:38:12.536Z,3.58
2019-05-14T03:40:45.228Z,3.47
2019-05-14T03:43:15.661Z,2.92
2019-05-14T03:45:49.254Z,3.15
2019-05-14T03:48:19.110Z,3.67
2019-05-14T03:50:51.351Z,3.58
2019-05-14T03:53:21.665Z,3.52
2019-05-14T03:55:52.402Z,3.35
2019-05-14T03:58:23.888Z,3.02
2019-05-14T04:01:09.625Z,3.40
2019-05-14T04:03:40.087Z,3.83
2019-05-14T04:06:11.777Z,3.33
2019-05-14T04:08:43.183Z,3.25
2019-05-14T04:11:16.186Z,3.42
2019-05-14T04:13:49.901Z,3.33
2019-05-14T04:16:23.376Z,4.05
2019-05-14T04:18:55.091Z,3.72
2019-05-14T04:21:29.871Z,3.00
2019-05-14T04:24:01.389Z,4.08
2019-05-14T04:26:50.879Z,3.55
2019-05-14T04:29:10.141Z,3.98
2019-05-14T04:31:43.542Z,3.90
2019-05-14T04:34:14.854Z,3.60
2019-05-14T04:36:50.318Z,3.27
2019-05-14T04:39:20.099Z,3.37
2019-05-14T04:41:51.020Z,3.62
2019-05-14T04:44:22.393Z,4.08
2019-05-14T04:46:53.584Z,3.85
2019-05-14T04:49:23.980Z,3.62
2019-05-14T04:51:54.349Z,3.98
2019-05-14T04:54:26.257Z,4.00
2019-05-14T04:56:59.974Z,3.62
2019-05-14T04:59:31.083Z,4.22
2019-05-14T05:02:01.513Z,3.75
2019-05-14T05:04:31.895Z,3.33
2019-05-14T05:07:02.862Z,3.65
2019-05-14T05:09:34.185Z,3.65
2019-05-14T05:12:05.085Z,3.52
2019-05-14T05:14:35.474Z,3.40
2019-05-14T05:17:09.185Z,3.90
2019-05-14T05:19:44.149Z,4.17
2019-05-14T05:22:11.475Z,3.33
2019-05-14T05:24:41.714Z,3.65
2019-05-14T05:27:14.070Z,3.47
2019-05-14T05:29:45.546Z,3.30
2019-05-14T05:32:19.395Z,3.98
2019-05-14T05:34:49.336Z,3.60
2019-05-14T05:37:21.072Z,4.22
2019-05-14T05:39:51.698Z,3.62
2019-05-14T05:42:23.324Z,3.47
2019-05-14T05:44:54.637Z,3.75
2019-05-14T05:47:25.701Z,3.08
2019-05-14T05:49:58.133Z,3.95
2019-05-14T05:52:29.778Z,3.75
2019-05-14T05:55:00.105Z,3.92
2019-05-14T05:57:30.484Z,3.15
2019-05-14T06:00:03.160Z,4.05
2019-05-14T06:02:34.216Z,3.40
2019-05-14T06:05:07.882Z,3.27
2019-05-14T06:07:39.406Z,3.53
2019-05-14T06:10:10.808Z,4.15
2019-05-14T06:12:41.524Z,3.70
2019-05-14T06:15:14.328Z,3.65
2019-05-14T06:17:44.664Z,3.90
2019-05-14T06:20:18.796Z,3.83
2019-05-14T06:22:48.961Z,3.67
2019-05-14T06:25:21.153Z,4.75
2019-05-14T06:27:51.914Z,4.10
2019-05-14T06:30:40.801Z,3.70
2019-05-14T06:33:11.193Z,3.80
2019-05-14T06:35:48.744Z,3.77
2019-05-14T06:38:20.172Z,4.20
2019-05-14T06:40:51.268Z,4.00
2019-05-14T06:43:23.353Z,4.20
2019-05-14T06:45:54.974Z,3.98
2019-05-14T06:48:31.553Z,3.85
2019-05-14T06:50:59.460Z,4.30
2019-05-14T06:53:29.857Z,3.70
2019-05-14T06:56:01.362Z,3.65
2019-05-14T06:58:33.294Z,3.87
2019-05-14T07:01:03.669Z,3.55
2019-05-14T07:03:34.604Z,5.20
2019-05-14T07:06:05.036Z,3.67
2019-05-14T07:08:39.231Z,3.35
2019-05-14T07:11:10.212Z,3.45
2019-05-14T07:13:42.962Z,3.95
2019-05-14T07:16:13.316Z,3.50
2019-05-14T07:18:49.376Z,3.95
2019-05-14T07:21:18.504Z,3.77
2019-05-14T07:23:49.283Z,3.55
2019-05-14T07:26:19.697Z,3.67
2019-05-14T07:28:50.348Z,4.17
2019-05-14T07:31:22.121Z,3.33
2019-05-14T07:33:53.329Z,3.20
2019-05-14T07:36:24.749Z,3.52
2019-05-14T07:38:59.807Z,3.92
2019-05-14T07:41:29.795Z,3.25
2019-05-14T07:44:00.513Z,3.05
2019-05-14T07:46:30.903Z,2.95
2019-05-14T07:49:08.135Z,3.12
2019-05-14T07:51:33.947Z,2.90
2019-05-14T07:54:04.433Z,2.80
2019-05-14T07:56:34.838Z,2.90
2019-05-14T07:59:05.677Z,2.90
2019-05-14T08:01:38.851Z,2.80
2019-05-14T08:04:11.013Z,2.92
2019-05-14T08:06:40.892Z,2.55
2019-05-14T08:09:11.377Z,3.12
2019-05-14T08:11:42.545Z,2.65
2019-05-14T08:14:13.651Z,2.95
2019-05-14T08:16:44.154Z,2.87
2019-05-14T08:19:24.353Z,2.50
2019-05-14T08:21:49.925Z,2.55
2019-05-14T08:24:26.672Z,2.67
2019-05-14T08:26:52.740Z,2.60
2019-05-14T08:29:24.079Z,3.47
2019-05-14T08:31:55.344Z,3.10
2019-05-14T08:34:25.678Z,3.22
2019-05-14T08:36:58.889Z,2.95
2019-05-14T08:39:29.852Z,3.05
2019-05-14T08:42:04.030Z,2.20
2019-05-14T08:44:35.539Z,2.72
2019-05-14T08:47:05.869Z,2.95
2019-05-14T08:49:45.467Z,3.00
2019-05-14T08:52:09.035Z,2.72
2019-05-14T08:54:39.593Z,2.80
2019-05-14T08:57:10.188Z,2.87
2019-05-14T08:59:40.666Z,2.83
2019-05-14T09:02:12.422Z,2.62
2019-05-14T09:04:43.919Z,2.42
2019-05-14T09:07:14.898Z,2.85
2019-05-14T09:09:45.624Z,2.70
2019-05-14T09:12:18.796Z,2.80
2019-05-14T09:14:50.053Z,3.83
2019-05-14T09:17:20.386Z,3.33
2019-05-14T09:20:02.244Z,3.42
2019-05-14T09:22:23.321Z,2.95
2019-05-14T09:24:53.675Z,3.42
2019-05-14T09:27:24.263Z,3.15
2019-05-14T09:29:54.766Z,2.60
2019-05-14T09:32:25.868Z,2.90
2019-05-14T09:34:58.936Z,2.37
2019-05-14T09:37:29.722Z,2.87
2019-05-14T09:40:00.505Z,2.55
2019-05-14T09:42:32.112Z,2.45
2019-05-14T09:45:03.027Z,2.72
2019-05-14T09:47:34.621Z,2.83
2019-05-14T09:50:16.377Z,2.37
2019-05-14T09:52:39.871Z,2.33
2019-05-14T09:55:11.294Z,2.33
2019-05-14T09:57:41.631Z,2.55
2019-05-14T10:00:14.654Z,2.92
2019-05-14T10:02:45.073Z,2.00
2019-05-14T10:05:19.491Z,2.40
2019-05-14T10:07:50.218Z,2.15
2019-05-14T10:10:21.542Z,2.25
2019-05-14T10:12:56.858Z,2.10
2019-05-14T10:15:24.855Z,2.45
2019-05-14T10:17:55.162Z,2.27
2019-05-14T10:20:40.542Z,1.98
2019-05-14T10:22:58.984Z,2.08
2019-05-14T10:25:30.575Z,1.90
2019-05-14T10:28:00.929Z,2.30
2019-05-14T10:30:32.210Z,2.22
2019-05-14T10:33:09.473Z,1.87
2019-05-14T10:35:36.127Z,2.22
2019-05-14T10:38:08.793Z,2.40
2019-05-14T10:40:39.947Z,2.10
2019-05-14T10:43:10.779Z,2.08
2019-05-14T10:45:43.389Z,3.42
2019-05-14T10:48:13.705Z,2.08
2019-05-14T10:50:56.245Z,2.00
2019-05-14T10:53:20.116Z,2.33
2019-05-14T10:55:50.452Z,2.30
2019-05-14T10:58:21.273Z,2.33
2019-05-14T11:00:52.093Z,2.12
2019-05-14T11:03:22.618Z,1.87
2019-05-14T11:05:54.443Z,1.98
2019-05-14T11:08:24.874Z,2.00
2019-05-14T11:11:03.035Z,2.50
2019-05-14T11:13:29.679Z,2.33
2019-05-14T11:16:01.386Z,3.00
2019-05-14T11:18:31.786Z,2.37
2019-05-14T11:21:18.646Z,2.27
2019-05-14T11:23:34.243Z,2.47
2019-05-14T11:26:05.003Z,2.35
2019-05-14T11:28:35.697Z,2.02
2019-05-14T11:31:09.220Z,2.35
2019-05-14T11:33:39.168Z,2.65
2019-05-14T11:36:14.054Z,2.50
2019-05-14T11:38:44.372Z,2.60
2019-05-14T11:41:18.419Z,2.20
2019-05-14T11:43:49.273Z,2.42
2019-05-14T11:46:38.639Z,2.15
2019-05-14T11:48:54.806Z,2.15
2019-05-14T11:51:57.881Z,2.20
2019-05-14T11:53:58.725Z,1.90
2019-05-14T11:56:41.802Z,2.08
2019-05-14T11:59:19.533Z,2.17
2019-05-14T12:01:54.868Z,2.40
2019-05-14T12:04:23.242Z,2.45
2019-05-14T12:06:54.918Z,2.10
2019-05-14T12:09:25.232Z,2.17
2019-05-14T12:11:58.522Z,2.30
2019-05-14T12:14:28.189Z,2.87
2019-05-14T12:17:03.025Z,2.40
2019-05-14T12:19:33.773Z,2.20
2019-05-14T12:22:10.413Z,2.55
2019-05-14T12:24:38.550Z,2.20
2019-05-14T12:27:09.026Z,2.50
2019-05-14T12:29:40.201Z,1.92
2019-05-14T12:32:12.840Z,1.92
2019-05-14T12:34:43.111Z,2.58
2019-05-14T12:37:18.587Z,2.62
2019-05-14T12:39:48.334Z,2.72
2019-05-14T12:42:20.156Z,2.30
2019-05-14T12:44:50.489Z,2.30
2019-05-14T12:47:23.210Z,2.10
2019-05-14T12:49:53.543Z,2.00
2019-05-14T12:52:26.004Z,2.40
2019-05-14T12:54:55.921Z,2.37
2019-05-14T12:57:29.993Z,1.95
2019-05-14T12:59:59.415Z,2.60
2019-05-14T13:02:29.820Z,1.82
2019-05-14T13:05:00.272Z,2.15
2019-05-14T13:07:31.597Z,2.62
2019-05-14T13:10:01.963Z,1.90
2019-05-14T13:12:32.399Z,2.10
2019-05-14T13:15:02.823Z,1.98
2019-05-14T13:17:35.808Z,1.80
2019-05-14T13:20:13.183Z,2.20
2019-05-14T13:22:46.044Z,2.12
2019-05-14T13:25:13.605Z,2.33
2019-05-14T13:27:45.595Z,2.08
2019-05-14T13:30:18.600Z,2.08
2019-05-14T13:32:50.033Z,2.37
2019-05-14T13:35:20.768Z,2.00
2019-05-14T13:37:51.516Z,2.08
2019-05-14T13:40:22.523Z,2.52
2019-05-14T13:42:53.766Z,2.30
2019-05-14T13:45:24.013Z,2.08
2019-05-14T13:47:54.736Z,2.40
2019-05-14T13:50:25.233Z,2.40
2019-05-14T13:53:04.114Z,2.37
2019-05-14T13:55:30.470Z,2.30
2019-05-14T13:58:00.227Z,2.02
2019-05-14T14:00:32.201Z,1.85
2019-05-14T14:03:02.813Z,1.95
2019-05-14T14:05:33.143Z,2.17
2019-05-14T14:08:04.189Z,2.30
2019-05-14T14:10:36.745Z,2.60
2019-05-14T14:13:11.074Z,2.87
2019-05-14T14:15:39.395Z,2.40
2019-05-14T14:18:10.263Z,2.30
2019-05-14T14:20:41.113Z,2.10
2019-05-14T14:23:22.242Z,2.45
2019-05-14T14:25:44.988Z,2.15
2019-05-14T14:28:16.476Z,2.42
2019-05-14T14:30:49.186Z,2.22
2019-05-14T14:33:20.195Z,2.35
2019-05-14T14:35:50.435Z,2.35
2019-05-14T14:38:20.780Z,2.30
2019-05-14T14:40:51.784Z,2.42
2019-05-14T14:43:22.509Z,2.22
2019-05-14T14:45:52.943Z,2.37
2019-05-14T14:48:25.301Z,2.42
2019-05-14T14:50:58.470Z,2.67
2019-05-14T14:53:43.089Z,2.35
2019-05-14T14:56:02.360Z,2.67
2019-05-14T14:58:33.152Z,2.50
2019-05-14T15:01:03.569Z,2.70
2019-05-14T15:03:34.831Z,2.52
2019-05-14T15:06:05.084Z,2.45
2019-05-14T15:08:38.628Z,2.37
2019-05-14T15:11:08.586Z,2.52
2019-05-14T15:13:40.758Z,2.58
2019-05-14T15:16:13.339Z,3.10
2019-05-14T15:18:44.333Z,2.65
2019-05-14T15:21:14.640Z,2.50
2019-05-14T15:24:03.009Z,2.60
2019-05-14T15:26:19.324Z,2.80
2019-05-14T15:28:50.633Z,2.77
2019-05-14T15:31:20.959Z,3.20
2019-05-14T15:33:52.578Z,2.98
2019-05-14T15:36:22.901Z,3.05
2019-05-14T15:38:53.572Z,3.17
2019-05-14T15:41:23.878Z,3.17
2019-05-14T15:43:58.717Z,3.37
2019-05-14T15:48:59.542Z,3.27
2019-05-14T15:51:30.024Z,3.05
2019-05-14T15:54:11.628Z,2.80
2019-05-14T15:56:33.067Z,2.58
2019-05-14T15:59:03.723Z,3.83
2019-05-14T16:01:34.037Z,3.20
2019-05-14T16:04:11.155Z,2.77
2019-05-14T16:06:40.671Z,3.25
2019-05-14T16:09:11.482Z,2.83
2019-05-14T16:11:42.159Z,2.70
2019-05-14T16:14:12.927Z,3.20
2019-05-14T16:16:43.548Z,3.25
2019-05-14T16:19:15.529Z,3.22
2019-05-14T16:21:46.194Z,3.25
2019-05-14T16:24:22.397Z,3.50
2019-05-14T16:26:50.840Z,3.80
2019-05-14T16:29:36.762Z,3.22
2019-05-14T16:31:53.334Z,4.33
2019-05-14T16:34:24.982Z,3.80
2019-05-14T16:36:55.739Z,4.35
2019-05-14T16:39:28.442Z,4.28
2019-05-14T16:41:58.515Z,3.98
2019-05-14T16:44:32.180Z,4.00
2019-05-14T16:47:02.611Z,3.87
2019-05-14T16:49:34.105Z,4.17
2019-05-14T16:52:04.879Z,3.77
2019-05-14T16:54:39.309Z,4.05
2019-05-14T16:57:11.007Z,3.40
2019-05-14T16:59:41.166Z,4.35
2019-05-14T17:02:12.583Z,4.62
2019-05-14T17:04:44.585Z,4.10
2019-05-14T17:07:14.901Z,3.98
2019-05-14T17:09:45.332Z,4.10
2019-05-14T17:12:20.068Z,4.80
2019-05-14T17:14:48.740Z,4.17
2019-05-14T17:17:20.099Z,3.87
2019-05-14T17:19:52.646Z,3.58
2019-05-14T17:22:29.138Z,3.62
2019-05-14T17:24:58.500Z,4.20
2019-05-14T17:27:28.627Z,3.60
2019-05-14T17:29:59.480Z,3.85
2019-05-14T17:32:31.202Z,4.17
2019-05-14T17:35:03.703Z,4.72
2019-05-14T17:37:34.441Z,3.67
2019-05-14T17:40:06.161Z,4.33
2019-05-14T17:42:39.070Z,3.72
2019-05-14T17:45:10.347Z,3.33
2019-05-14T17:47:40.747Z,3.45
2019-05-14T17:50:13.536Z,3.70
2019-05-14T17:52:45.371Z,3.40
2019-05-14T17:55:18.784Z,3.35
2019-05-14T17:57:57.591Z,3.37
2019-05-14T18:00:22.197Z,3.10
2019-05-14T18:02:52.622Z,3.35
2019-05-14T18:05:25.324Z,3.20
2019-05-14T18:07:59.106Z,3.12
2019-05-14T18:10:29.142Z,3.35
2019-05-14T18:12:59.889Z,2.98
2019-05-14T18:15:32.213Z,2.87
2019-05-14T18:18:02.550Z,2.67
2019-05-14T18:20:33.380Z,2.58
2019-05-14T18:23:03.879Z,2.50
2019-05-14T18:25:35.457Z,2.72
2019-05-14T18:28:09.060Z,2.40
2019-05-14T18:30:38.814Z,2.67
2019-05-14T18:33:10.462Z,2.58
2019-05-14T18:35:46.867Z,2.58
2019-05-14T18:38:15.101Z,2.50
2019-05-14T18:40:45.887Z,2.40
2019-05-14T18:43:18.660Z,2.58
2019-05-14T18:45:50.452Z,2.15
2019-05-14T18:48:21.767Z,2.40
2019-05-14T18:50:53.600Z,1.87
2019-05-14T18:53:23.839Z,2.30
2019-05-14T18:55:54.640Z,2.22
2019-05-14T18:58:26.131Z,2.33
2019-05-14T19:00:58.632Z,2.20
2019-05-14T19:03:29.143Z,2.17
2019-05-14T19:06:00.088Z,2.62
2019-05-14T19:08:31.196Z,2.30
2019-05-14T19:11:01.647Z,2.15
2019-05-14T19:13:32.081Z,2.30
2019-05-14T19:16:03.147Z,2.20
2019-05-14T19:18:33.618Z,2.33
2019-05-14T19:21:05.382Z,2.20
2019-05-14T19:23:35.746Z,2.10
2019-05-14T19:26:06.475Z,2.20
2019-05-14T19:28:38.879Z,2.42
2019-05-14T19:31:10.535Z,2.22
2019-05-14T19:33:40.794Z,2.65
2019-05-14T19:36:11.737Z,2.83
2019-05-14T19:38:42.075Z,2.47
2019-05-14T19:41:12.692Z,2.15
2019-05-14T19:43:43.105Z,2.05
2019-05-14T19:46:15.283Z,2.08
2019-05-14T19:48:48.226Z,2.12
2019-05-14T19:51:18.789Z,2.12
2019-05-14T19:53:52.042Z,3.12
2019-05-14T19:56:21.996Z,1.82
2019-05-14T19:58:53.229Z,2.42
2019-05-14T20:01:24.679Z,1.85
2019-05-14T20:03:55.420Z,2.20
2019-05-14T20:06:25.936Z,2.20
2019-05-14T20:08:58.754Z,2.42
2019-05-14T20:11:29.405Z,2.15
2019-05-14T20:13:59.749Z,2.22
2019-05-14T20:16:31.153Z,2.02
2019-05-14T20:19:02.624Z,2.20
2019-05-14T20:21:34.452Z,1.90
2019-05-14T20:24:04.760Z,2.30
2019-05-14T20:26:35.053Z,1.87
2019-05-14T20:29:08.566Z,2.22
2019-05-14T20:31:39.577Z,1.70
2019-05-14T20:34:09.876Z,2.40
2019-05-14T20:36:41.854Z,2.20
2019-05-14T20:39:12.639Z,1.80
2019-05-14T20:41:44.805Z,2.30
2019-05-14T20:44:15.141Z,1.92
2019-05-14T20:46:49.005Z,2.15
2019-05-14T20:49:19.621Z,2.00
2019-05-14T20:51:51.412Z,2.35
2019-05-14T20:54:22.057Z,2.35
2019-05-14T20:56:53.467Z,2.35
2019-05-14T20:59:24.842Z,2.10
2019-05-14T21:01:55.361Z,2.30
2019-05-14T21:04:28.062Z,1.82
2019-05-14T21:06:58.764Z,2.10
2019-05-14T21:09:29.260Z,2.60
2019-05-14T21:12:01.798Z,2.20
2019-05-14T21:14:32.415Z,2.30
2019-05-14T21:17:03.239Z,2.42
2019-05-14T21:19:33.546Z,2.45
2019-05-14T21:22:04.212Z,2.47
2019-05-14T21:24:34.529Z,2.72
2019-05-14T21:27:04.843Z,4.25
2019-05-14T21:29:38.275Z,2.92
2019-05-14T21:32:09.060Z,2.80
2019-05-14T21:34:40.099Z,2.55
2019-05-14T21:37:10.407Z,2.72
2019-05-14T21:39:41.146Z,2.50
2019-05-14T21:42:14.288Z,3.00
2019-05-14T21:44:44.972Z,2.75
2019-05-14T21:47:15.723Z,2.65
2019-05-14T21:49:48.292Z,3.35
2019-05-14T21:52:20.757Z,2.90
2019-05-14T21:54:51.748Z,2.65
2019-05-14T21:57:23.235Z,2.90
2019-05-14T21:59:53.619Z,3.47
2019-05-14T22:02:28.257Z,2.55
2019-05-14T22:04:58.228Z,3.10
2019-05-14T22:07:30.892Z,2.58
2019-05-14T22:10:01.159Z,3.05
2019-05-14T22:12:33.500Z,3.17
2019-05-14T22:15:05.147Z,2.98
2019-05-14T22:17:35.448Z,3.37
2019-05-14T22:20:09.212Z,3.30
2019-05-14T22:25:11.433Z,3.10
2019-05-14T22:27:41.965Z,3.40
2019-05-14T22:30:12.887Z,3.58
2019-05-14T22:32:44.931Z,3.75
2019-05-14T22:35:15.303Z,3.42
2019-05-14T22:37:48.245Z,3.42
2019-05-14T22:40:19.720Z,3.30
2019-05-14T22:42:51.194Z,3.30
2019-05-14T22:45:22.469Z,3.83
2019-05-14T22:47:55.604Z,4.05
2019-05-14T22:50:25.842Z,4.67
2019-05-14T22:52:58.469Z,5.10
2019-05-14T22:55:31.208Z,3.95
2019-05-14T22:58:00.579Z,3.40
2019-05-14T23:00:30.895Z,4.03
2019-05-14T23:03:01.226Z,3.87
2019-05-14T23:05:31.649Z,3.70
2019-05-14T23:08:02.288Z,3.52
2019-05-14T23:10:32.592Z,3.37
2019-05-14T23:13:04.770Z,4.20
2019-05-14T23:15:35.430Z,4.25
2019-05-14T23:18:08.377Z,4.03
2019-05-14T23:20:39.025Z,4.15
2019-05-14T23:23:12.789Z,4.30
2019-05-14T23:25:43.155Z,3.70
2019-05-14T23:28:16.397Z,4.17
2019-05-14T23:30:48.119Z,3.83
2019-05-14T23:33:20.174Z,3.77
2019-05-14T23:35:51.870Z,4.00
2019-05-14T23:38:22.595Z,4.17
2019-05-14T23:40:53.333Z,4.03
2019-05-14T23:43:25.438Z,4.08
2019-05-14T23:45:55.766Z,4.55
2019-05-14T23:48:27.353Z,4.60
2019-05-14T23:50:58.431Z,4.08
2019-05-14T23:53:30.847Z,4.20
2019-05-14T23:56:01.351Z,3.92
2019-05-14T23:58:31.895Z,4.10
